createdAt,value
2018-08-13T00:02:07.172Z,8.53
2018-08-13T00:04:36.203Z,9.30
2018-08-13T00:07:05.085Z,9.53
2018-08-13T00:09:39.466Z,9.90
2018-08-13T00:12:08.583Z,8.60
2018-08-13T00:14:37.651Z,10.00
2018-08-13T00:17:06.656Z,8.80
2018-08-13T00:19:35.866Z,9.30
2018-08-13T00:22:05.043Z,7.93
2018-08-13T00:24:33.992Z,9.10
2018-08-13T00:27:02.964Z,9.33
2018-08-13T00:29:31.815Z,8.00
2018-08-13T00:32:00.664Z,8.13
2018-08-13T00:34:29.639Z,9.10
2018-08-13T00:36:58.554Z,8.27
2018-08-13T00:39:27.515Z,8.83
2018-08-13T00:41:56.400Z,9.27
2018-08-13T00:44:25.336Z,10.33
2018-08-13T00:46:54.216Z,8.70
2018-08-13T00:49:23.075Z,10.00
2018-08-13T00:51:52.038Z,9.00
2018-08-13T00:54:21.007Z,9.73
2018-08-13T00:56:49.868Z,8.07
2018-08-13T00:59:18.726Z,9.17
2018-08-13T01:01:47.643Z,8.63
2018-08-13T01:04:16.651Z,8.77
2018-08-13T01:06:45.548Z,9.57
2018-08-13T01:09:14.467Z,9.60
2018-08-13T01:11:43.343Z,8.40
2018-08-13T01:14:12.280Z,8.73
2018-08-13T01:16:41.195Z,9.47
2018-08-13T01:19:10.003Z,9.00
2018-08-13T01:21:38.891Z,9.60
2018-08-13T01:24:07.862Z,9.47
2018-08-13T01:26:36.711Z,9.03
2018-08-13T01:29:06.035Z,8.37
2018-08-13T01:31:34.902Z,9.40
2018-08-13T01:34:03.851Z,8.80
2018-08-13T01:36:32.726Z,10.30
2018-08-13T01:39:01.596Z,9.00
2018-08-13T01:41:30.519Z,9.60
2018-08-13T01:43:59.542Z,9.07
2018-08-13T01:46:28.457Z,9.47
2018-08-13T01:48:57.412Z,8.90
2018-08-13T01:51:26.316Z,9.10
2018-08-13T01:53:55.286Z,8.00
2018-08-13T01:56:24.208Z,8.93
2018-08-13T01:58:53.090Z,8.50
2018-08-13T02:01:22.040Z,9.60
2018-08-13T02:03:51.395Z,8.83
2018-08-13T02:06:20.351Z,9.50
2018-08-13T02:08:49.218Z,9.23
2018-08-13T02:11:18.054Z,9.47
2018-08-13T02:13:46.963Z,9.03
2018-08-13T02:16:15.834Z,9.90
2018-08-13T02:18:44.682Z,9.40
2018-08-13T02:21:13.589Z,9.87
2018-08-13T02:23:42.615Z,9.07
2018-08-13T02:26:11.494Z,9.20
2018-08-13T02:28:40.431Z,8.63
2018-08-13T02:31:09.316Z,9.40
2018-08-13T02:33:38.239Z,10.17
2018-08-13T02:36:07.191Z,9.50
2018-08-13T02:38:36.107Z,10.33
2018-08-13T02:41:05.092Z,10.43
2018-08-13T02:43:34.080Z,9.13
2018-08-13T02:46:03.059Z,8.57
2018-08-13T02:48:31.952Z,9.90
2018-08-13T02:51:00.859Z,9.97
2018-08-13T02:53:29.876Z,9.37
2018-08-13T02:55:58.742Z,9.47
2018-08-13T02:58:27.719Z,9.67
2018-08-13T03:00:56.724Z,10.00
2018-08-13T03:03:25.720Z,8.93
2018-08-13T03:05:54.565Z,9.60
2018-08-13T03:08:23.459Z,9.17
2018-08-13T03:10:52.364Z,9.30
2018-08-13T03:13:21.493Z,8.80
2018-08-13T03:15:50.453Z,11.00
2018-08-13T03:18:19.382Z,9.03
2018-08-13T03:20:48.253Z,9.93
2018-08-13T03:23:17.247Z,9.07
2018-08-13T03:25:46.115Z,9.60
2018-08-13T03:28:14.936Z,11.20
2018-08-13T03:30:43.855Z,9.60
2018-08-13T03:33:12.811Z,9.00
2018-08-13T03:35:41.688Z,9.33
2018-08-13T03:38:10.623Z,8.80
2018-08-13T03:40:39.511Z,9.00
2018-08-13T03:43:08.480Z,9.60
2018-08-13T03:45:37.428Z,8.70
2018-08-13T03:48:06.368Z,8.80
2018-08-13T03:50:35.216Z,9.87
2018-08-13T03:53:04.655Z,8.87
2018-08-13T03:55:33.519Z,10.03
2018-08-13T03:58:02.514Z,9.90
2018-08-13T04:00:31.414Z,9.30
2018-08-13T04:03:00.556Z,9.67
2018-08-13T04:05:29.412Z,8.70
2018-08-13T04:07:58.264Z,10.37
2018-08-13T04:10:27.495Z,9.93
2018-08-13T04:12:56.449Z,10.50
2018-08-13T04:15:25.319Z,9.47
2018-08-13T04:17:54.175Z,9.80
2018-08-13T04:20:23.067Z,9.07
2018-08-13T04:22:51.967Z,10.67
2018-08-13T04:25:20.827Z,9.53
2018-08-13T04:27:49.699Z,8.93
2018-08-13T04:30:18.607Z,10.60
2018-08-13T04:32:47.973Z,10.40
2018-08-13T04:35:16.868Z,10.70
2018-08-13T04:37:46.429Z,9.13
2018-08-13T04:40:16.667Z,9.70
2018-08-13T04:42:46.668Z,10.27
2018-08-13T04:45:15.541Z,10.00
2018-08-13T04:47:53.293Z,9.57
2018-08-13T04:50:22.335Z,9.27
2018-08-13T04:52:51.387Z,8.93
2018-08-13T04:55:20.852Z,9.23
2018-08-13T04:57:49.784Z,9.17
2018-08-13T05:00:18.725Z,11.93
2018-08-13T05:02:47.608Z,10.60
2018-08-13T05:05:16.485Z,10.77
2018-08-13T05:07:45.302Z,9.00
2018-08-13T05:10:14.227Z,12.87
2018-08-13T05:12:43.151Z,12.27
2018-08-13T05:15:18.856Z,10.70
2018-08-13T05:17:47.747Z,10.40
2018-08-13T05:20:16.620Z,11.43
2018-08-13T05:22:45.599Z,11.03
2018-08-13T05:25:14.518Z,10.70
2018-08-13T05:27:43.360Z,11.23
2018-08-13T05:30:12.787Z,11.20
2018-08-13T05:32:41.662Z,11.83
2018-08-13T05:35:10.547Z,11.03
2018-08-13T05:37:39.469Z,10.33
2018-08-13T05:40:10.239Z,10.97
2018-08-13T05:42:39.714Z,11.23
2018-08-13T05:45:09.798Z,10.20
2018-08-13T05:47:38.767Z,11.57
2018-08-13T05:50:09.648Z,10.17
2018-08-13T05:52:38.639Z,9.77
2018-08-13T05:55:08.456Z,11.30
2018-08-13T05:57:37.399Z,13.77
2018-08-13T06:00:09.641Z,13.87
2018-08-13T06:02:40.084Z,12.27
2018-08-13T06:05:09.856Z,10.63
2018-08-13T06:07:38.952Z,11.13
2018-08-13T06:10:09.666Z,12.17
2018-08-13T06:12:38.874Z,11.10
2018-08-13T06:15:10.056Z,11.33
2018-08-13T06:17:39.038Z,11.03
2018-08-13T06:20:10.078Z,11.90
2018-08-13T06:22:40.295Z,11.40
2018-08-13T06:25:09.980Z,10.87
2018-08-13T06:27:39.085Z,11.50
2018-08-13T06:30:11.675Z,11.23
2018-08-13T06:32:41.161Z,10.83
2018-08-13T06:35:11.201Z,10.40
2018-08-13T06:37:40.868Z,10.30
2018-08-13T06:40:09.934Z,20.80
2018-08-13T06:42:39.311Z,18.20
2018-08-13T06:45:09.414Z,12.23
2018-08-13T06:47:39.225Z,12.70
2018-08-13T06:50:10.875Z,14.50
2018-08-13T06:52:39.791Z,16.00
2018-08-13T06:55:09.082Z,15.30
2018-08-13T06:57:37.906Z,16.63
2018-08-13T07:00:10.855Z,14.30
2018-08-13T07:02:39.859Z,17.43
2018-08-13T07:05:10.264Z,12.37
2018-08-13T07:07:39.876Z,12.03
2018-08-13T07:10:11.839Z,11.97
2018-08-13T07:12:42.587Z,11.70
2018-08-13T07:15:12.063Z,13.23
2018-08-13T07:17:41.074Z,11.83
2018-08-13T07:20:17.472Z,12.17
2018-08-13T07:22:46.454Z,13.50
2018-08-13T07:25:15.395Z,13.10
2018-08-13T07:27:44.381Z,11.80
2018-08-13T07:30:14.628Z,13.73
2018-08-13T07:32:43.940Z,12.97
2018-08-13T07:35:12.859Z,12.40
2018-08-13T07:37:41.798Z,11.87
2018-08-13T07:40:13.995Z,11.43
2018-08-13T07:42:43.267Z,10.80
2018-08-13T07:45:12.234Z,11.40
2018-08-13T07:47:41.560Z,12.70
2018-08-13T07:50:12.829Z,11.63
2018-08-13T07:52:42.005Z,12.43
2018-08-13T07:55:11.582Z,11.83
2018-08-13T07:57:40.958Z,11.67
2018-08-13T08:00:13.376Z,11.80
2018-08-13T08:02:42.364Z,11.77
2018-08-13T08:05:11.275Z,11.77
2018-08-13T08:07:40.182Z,11.40
2018-08-13T08:10:12.694Z,12.10
2018-08-13T08:12:41.962Z,11.60
2018-08-13T08:15:19.443Z,13.03
2018-08-13T08:17:48.419Z,10.87
2018-08-13T08:20:17.374Z,11.80
2018-08-13T08:22:46.430Z,10.97
2018-08-13T08:25:18.576Z,11.40
2018-08-13T08:27:47.505Z,10.60
2018-08-13T08:30:16.454Z,11.33
2018-08-13T08:32:45.563Z,11.53
2018-08-13T08:35:16.178Z,10.40
2018-08-13T08:37:45.307Z,11.23
2018-08-13T08:40:17.374Z,11.87
2018-08-13T08:42:46.876Z,10.30
2018-08-13T08:45:21.583Z,11.60
2018-08-13T08:47:51.922Z,10.83
2018-08-13T08:50:20.836Z,10.40
2018-08-13T08:52:49.894Z,13.20
2018-08-13T08:55:18.962Z,19.80
2018-08-13T08:57:49.098Z,13.10
2018-08-13T09:00:20.468Z,11.77
2018-08-13T09:02:49.439Z,10.93
2018-08-13T09:05:18.346Z,10.60
2018-08-13T09:07:47.572Z,11.50
2018-08-13T09:10:16.500Z,10.80
2018-08-13T09:12:45.534Z,10.87
2018-08-13T09:15:16.190Z,10.80
2018-08-13T09:18:02.211Z,9.83
2018-08-13T09:20:48.271Z,10.37
2018-08-13T09:23:34.155Z,10.80
2018-08-13T09:26:19.983Z,10.93
2018-08-13T09:29:06.095Z,11.83
2018-08-13T09:32:13.520Z,9.97
2018-08-13T09:35:47.595Z,11.27
2018-08-13T09:38:16.475Z,9.70
2018-08-13T09:40:45.311Z,10.87
2018-08-13T09:43:14.221Z,11.33
2018-08-13T09:45:43.075Z,10.57
2018-08-13T09:48:12.040Z,8.73
2018-08-13T09:50:40.866Z,9.07
2018-08-13T09:53:09.762Z,9.57
2018-08-13T09:55:38.675Z,9.60
2018-08-13T09:58:08.096Z,11.00
2018-08-13T10:00:42.638Z,10.00
2018-08-13T10:03:11.539Z,10.23
2018-08-13T10:05:40.492Z,8.00
2018-08-13T10:08:09.447Z,11.33
2018-08-13T10:10:38.335Z,10.50
2018-08-13T10:13:07.297Z,9.70
2018-08-13T10:15:36.211Z,10.17
2018-08-13T10:18:05.203Z,9.50
2018-08-13T10:20:34.196Z,9.40
2018-08-13T10:23:03.129Z,9.33
2018-08-13T10:25:32.134Z,9.00
2018-08-13T10:28:01.075Z,8.90
2018-08-13T10:30:29.996Z,9.30
2018-08-13T10:32:59.013Z,11.20
2018-08-13T10:35:27.948Z,9.10
2018-08-13T10:37:56.836Z,9.13
2018-08-13T10:40:25.751Z,9.43
2018-08-13T10:42:54.673Z,10.03
2018-08-13T10:45:23.568Z,9.93
2018-08-13T10:47:52.431Z,9.20
2018-08-13T10:50:21.396Z,10.83
2018-08-13T10:52:50.324Z,10.17
2018-08-13T10:55:19.271Z,9.23
2018-08-13T10:57:48.202Z,10.10
2018-08-13T11:00:17.271Z,13.67
2018-08-13T11:02:46.265Z,8.87
2018-08-13T11:05:15.684Z,9.93
2018-08-13T11:07:44.622Z,8.60
2018-08-13T11:10:14.616Z,8.60
2018-08-13T11:12:43.693Z,9.03
2018-08-13T11:15:17.123Z,9.13
2018-08-13T11:17:46.263Z,9.90
2018-08-13T11:20:15.684Z,9.40
2018-08-13T11:22:44.764Z,9.50
2018-08-13T11:25:15.302Z,9.80
2018-08-13T11:27:44.293Z,8.90
2018-08-13T11:30:15.235Z,9.40
2018-08-13T11:32:44.667Z,9.90
2018-08-13T11:35:14.840Z,9.83
2018-08-13T11:37:43.831Z,9.00
2018-08-13T11:40:15.311Z,9.17
2018-08-13T11:42:44.315Z,9.70
2018-08-13T11:45:13.268Z,9.33
2018-08-13T11:47:42.380Z,9.53
2018-08-13T11:50:14.334Z,9.70
2018-08-13T11:52:44.670Z,8.63
2018-08-13T11:55:13.863Z,9.23
2018-08-13T11:57:42.732Z,10.70
2018-08-13T12:00:12.566Z,9.50
2018-08-13T12:02:41.712Z,11.03
2018-08-13T12:05:12.874Z,9.83
2018-08-13T12:07:42.340Z,10.90
2018-08-13T12:10:12.287Z,9.60
2018-08-13T12:12:42.047Z,10.37
2018-08-13T12:15:11.897Z,9.60
2018-08-13T12:17:41.466Z,10.10
2018-08-13T12:20:17.222Z,9.80
2018-08-13T12:22:46.559Z,9.50
2018-08-13T12:25:27.843Z,8.40
2018-08-13T12:27:56.711Z,8.73
2018-08-13T12:30:25.989Z,9.63
2018-08-13T12:32:55.640Z,9.03
2018-08-13T12:35:24.552Z,9.17
2018-08-13T12:37:53.616Z,9.00
2018-08-13T12:40:22.571Z,7.93
2018-08-13T12:42:51.539Z,8.20
2018-08-13T12:45:20.390Z,8.93
2018-08-13T12:47:49.407Z,9.40
2018-08-13T12:50:19.619Z,9.30
2018-08-13T12:52:49.781Z,8.37
2018-08-13T12:55:18.764Z,8.50
2018-08-13T12:57:47.780Z,9.33
2018-08-13T13:00:17.890Z,8.20
2018-08-13T13:02:47.061Z,9.33
2018-08-13T13:05:17.023Z,8.17
2018-08-13T13:07:46.027Z,8.30
2018-08-13T13:10:16.227Z,9.20
2018-08-13T13:12:45.327Z,9.17
2018-08-13T13:15:16.896Z,8.80
2018-08-13T13:17:45.883Z,8.00
2018-08-13T13:20:22.751Z,9.40
2018-08-13T13:22:52.035Z,10.20
2018-08-13T13:25:20.991Z,9.20
2018-08-13T13:27:49.883Z,9.80
2018-08-13T13:30:18.726Z,10.23
2018-08-13T13:32:47.624Z,11.50
2018-08-13T13:35:17.219Z,9.83
2018-08-13T13:37:46.266Z,9.73
2018-08-13T13:40:16.693Z,10.90
2018-08-13T13:42:45.718Z,9.70
2018-08-13T13:45:16.187Z,9.90
2018-08-13T13:47:45.114Z,9.80
2018-08-13T13:50:19.223Z,9.80
2018-08-13T13:52:48.230Z,10.80
2018-08-13T13:55:17.259Z,8.90
2018-08-13T13:57:46.125Z,9.60
2018-08-13T14:00:18.490Z,10.20
2018-08-13T14:02:49.359Z,9.97
2018-08-13T14:05:18.642Z,8.90
2018-08-13T14:07:47.548Z,9.60
2018-08-13T14:10:21.176Z,10.57
2018-08-13T14:12:50.183Z,10.00
2018-08-13T14:15:20.998Z,10.00
2018-08-13T14:17:50.563Z,8.83
2018-08-13T14:20:19.963Z,10.23
2018-08-13T14:22:48.890Z,9.40
2018-08-13T14:25:17.859Z,9.37
2018-08-13T14:27:46.839Z,9.80
2018-08-13T14:30:21.624Z,9.40
2018-08-13T14:32:50.799Z,9.83
2018-08-13T14:35:20.819Z,9.53
2018-08-13T14:37:49.851Z,9.50
2018-08-13T14:40:18.908Z,11.10
2018-08-13T14:42:48.007Z,10.53
2018-08-13T14:45:18.179Z,10.47
2018-08-13T14:47:48.961Z,10.97
2018-08-13T14:50:18.085Z,9.60
2018-08-13T14:52:48.013Z,10.57
2018-08-13T14:55:20.297Z,8.93
2018-08-13T14:57:49.267Z,10.40
2018-08-13T15:00:23.775Z,10.27
2018-08-13T15:02:54.059Z,11.30
2018-08-13T15:05:22.976Z,10.03
2018-08-13T15:07:51.958Z,10.00
2018-08-13T15:10:23.801Z,10.50
2018-08-13T15:12:52.934Z,9.80
2018-08-13T15:15:22.671Z,10.00
2018-08-13T15:17:51.815Z,10.30
2018-08-13T15:20:25.643Z,10.50
2018-08-13T15:22:54.977Z,9.80
2018-08-13T15:25:24.712Z,9.60
2018-08-13T15:27:53.774Z,9.80
2018-08-13T15:30:23.443Z,10.43
2018-08-13T15:33:56.616Z,10.50
2018-08-13T15:36:25.654Z,10.07
2018-08-13T15:38:54.574Z,11.50
2018-08-13T15:41:23.836Z,10.80
2018-08-13T15:43:52.807Z,10.23
2018-08-13T15:46:21.778Z,10.10
2018-08-13T15:48:50.743Z,10.97
2018-08-13T15:51:19.617Z,11.10
2018-08-13T15:53:48.640Z,11.23
2018-08-13T15:56:17.624Z,9.70
2018-08-13T15:58:46.552Z,10.30
2018-08-13T16:01:15.418Z,9.90
2018-08-13T16:03:44.422Z,11.13
2018-08-13T16:06:13.390Z,9.97
2018-08-13T16:08:42.251Z,10.57
2018-08-13T16:11:11.195Z,10.30
2018-08-13T16:13:40.154Z,10.17
2018-08-13T16:16:09.458Z,10.70
2018-08-13T16:18:38.455Z,9.90
2018-08-13T16:21:07.450Z,10.40
2018-08-13T16:23:36.380Z,11.33
2018-08-13T16:26:05.335Z,10.90
2018-08-13T16:28:34.206Z,11.60
2018-08-13T16:31:03.103Z,9.50
2018-08-13T16:33:32.099Z,9.97
2018-08-13T16:36:01.743Z,10.57
2018-08-13T16:38:30.643Z,10.40
2018-08-13T16:40:59.476Z,10.53
2018-08-13T16:43:28.427Z,10.13
2018-08-13T16:45:57.302Z,10.70
2018-08-13T16:48:26.744Z,11.60
2018-08-13T16:50:56.720Z,11.00
2018-08-13T16:53:26.303Z,10.40
2018-08-13T16:55:55.516Z,12.73
2018-08-13T16:58:24.547Z,10.70
2018-08-13T17:00:53.873Z,11.03
2018-08-13T17:03:23.716Z,11.60
2018-08-13T17:05:52.599Z,11.50
2018-08-13T17:08:21.483Z,11.20
2018-08-13T17:10:50.405Z,9.83
2018-08-13T17:13:19.404Z,11.63
2018-08-13T17:15:49.270Z,11.27
2018-08-13T17:18:18.214Z,10.50
2018-08-13T17:20:47.143Z,11.07
2018-08-13T17:23:16.159Z,11.83
2018-08-13T17:25:45.054Z,11.40
2018-08-13T17:28:14.288Z,10.60
2018-08-13T17:30:43.156Z,10.13
2018-08-13T17:33:12.167Z,10.77
2018-08-13T17:35:41.084Z,11.23
2018-08-13T17:38:11.139Z,11.40
2018-08-13T17:40:40.147Z,11.07
2018-08-13T17:43:10.624Z,10.60
2018-08-13T17:45:39.376Z,10.97
2018-08-13T17:48:09.775Z,11.93
2018-08-13T17:50:38.903Z,10.70
2018-08-13T17:53:09.346Z,10.33
2018-08-13T17:55:38.311Z,11.03
2018-08-13T17:58:07.271Z,11.77
2018-08-13T18:00:36.130Z,11.47
2018-08-13T18:03:05.284Z,11.90
2018-08-13T18:05:34.219Z,10.37
2018-08-13T18:08:03.181Z,10.23
2018-08-13T18:10:33.227Z,10.67
2018-08-13T18:13:05.703Z,11.10
2018-08-13T18:15:34.669Z,10.93
2018-08-13T18:18:03.675Z,11.40
2018-08-13T18:20:32.584Z,11.43
2018-08-13T18:23:01.571Z,10.30
2018-08-13T18:25:30.476Z,10.60
2018-08-13T18:27:59.379Z,11.77
2018-08-13T18:30:29.066Z,11.47
2018-08-13T18:32:58.084Z,11.10
2018-08-13T18:35:27.059Z,11.07
2018-08-13T18:37:55.925Z,11.70
2018-08-13T18:40:29.716Z,11.03
2018-08-13T18:42:58.767Z,12.10
2018-08-13T18:45:27.747Z,12.20
2018-08-13T18:47:57.024Z,11.80
2018-08-13T18:50:26.082Z,10.63
2018-08-13T18:52:55.143Z,11.50
2018-08-13T18:55:25.127Z,10.30
2018-08-13T18:57:54.559Z,10.33
2018-08-13T19:00:27.931Z,10.27
2018-08-13T19:02:59.308Z,11.33
2018-08-13T19:05:28.469Z,9.87
2018-08-13T19:07:57.390Z,10.23
2018-08-13T19:10:26.480Z,12.07
2018-08-13T19:12:56.672Z,11.20
2018-08-13T19:15:26.704Z,12.00
2018-08-13T19:17:55.771Z,10.80
2018-08-13T19:20:26.368Z,10.43
2018-08-13T19:22:55.507Z,10.10
2018-08-13T19:25:26.683Z,9.43
2018-08-13T19:27:55.752Z,9.70
2018-08-13T19:30:25.390Z,9.57
2018-08-13T19:32:55.047Z,10.80
2018-08-13T19:35:23.996Z,12.40
2018-08-13T19:37:53.019Z,12.40
2018-08-13T19:40:24.907Z,11.33
2018-08-13T19:42:54.716Z,10.40
2018-08-13T19:45:23.783Z,10.90
2018-08-13T19:47:55.311Z,10.57
2018-08-13T19:50:24.267Z,10.70
2018-08-13T19:52:53.775Z,10.67
2018-08-13T19:55:22.930Z,10.77
2018-08-13T19:57:52.331Z,10.70
2018-08-13T20:00:24.187Z,9.63
2018-08-13T20:02:53.634Z,10.03
2018-08-13T20:05:24.724Z,10.40
2018-08-13T20:07:55.123Z,10.80
2018-08-13T20:10:24.896Z,10.77
2018-08-13T20:12:53.959Z,10.27
2018-08-13T20:15:23.700Z,9.13
2018-08-13T20:17:52.803Z,10.33
2018-08-13T20:20:21.734Z,10.53
2018-08-13T20:22:51.312Z,10.80
2018-08-13T20:25:20.787Z,11.03
2018-08-13T20:27:50.617Z,10.37
2018-08-13T20:30:20.981Z,11.50
2018-08-13T20:32:51.283Z,9.53
2018-08-13T20:35:20.462Z,10.37
2018-08-13T20:37:49.456Z,10.73
2018-08-13T20:40:19.496Z,9.37
2018-08-13T20:42:49.016Z,10.53
2018-08-13T20:45:19.638Z,10.40
2018-08-13T20:47:48.763Z,10.43
2018-08-13T20:50:23.484Z,9.50
2018-08-13T20:52:53.812Z,10.50
2018-08-13T20:55:26.872Z,10.13
2018-08-13T20:57:55.799Z,10.20
2018-08-13T21:00:26.396Z,10.10
2018-08-13T21:02:55.321Z,9.97
2018-08-13T21:05:24.224Z,10.10
2018-08-13T21:07:53.066Z,10.87
2018-08-13T21:10:23.907Z,10.00
2018-08-13T21:12:52.944Z,11.27
2018-08-13T21:15:21.898Z,10.77
2018-08-13T21:17:50.856Z,10.50
2018-08-13T21:20:24.651Z,11.27
2018-08-13T21:22:53.821Z,10.20
2018-08-13T21:25:22.774Z,11.37
2018-08-13T21:27:51.819Z,10.30
2018-08-13T21:30:20.732Z,10.33
2018-08-13T21:32:49.739Z,10.33
2018-08-13T21:35:21.439Z,11.10
2018-08-13T21:37:50.507Z,12.00
2018-08-13T21:40:19.457Z,11.30
2018-08-13T21:42:49.345Z,11.10
2018-08-13T21:45:18.295Z,10.63
2018-08-13T21:47:47.280Z,10.47
2018-08-13T21:50:19.823Z,10.50
2018-08-13T21:52:49.771Z,11.67
2018-08-13T21:55:18.795Z,11.10
2018-08-13T21:57:47.824Z,11.83
2018-08-13T22:00:29.527Z,11.70
2018-08-13T22:03:00.839Z,10.87
2018-08-13T22:05:29.814Z,11.90
2018-08-13T22:07:58.937Z,12.50
2018-08-13T22:10:27.913Z,11.40
2018-08-13T22:12:56.880Z,11.00
2018-08-13T22:15:26.991Z,10.80
2018-08-13T22:17:57.735Z,10.47
2018-08-13T22:20:27.446Z,10.30
2018-08-13T22:22:58.348Z,11.70
2018-08-13T22:25:33.254Z,11.47
2018-08-13T22:28:02.319Z,12.33
2018-08-13T22:30:32.750Z,10.80
2018-08-13T22:33:01.779Z,11.70
2018-08-13T22:35:30.755Z,11.63
2018-08-13T22:37:59.693Z,11.20
2018-08-13T22:40:28.619Z,11.70
2018-08-13T22:42:57.524Z,11.83
2018-08-13T22:45:26.402Z,11.27
2018-08-13T22:47:55.295Z,11.30
2018-08-13T22:50:24.142Z,13.17
2018-08-13T22:52:53.131Z,11.43
2018-08-13T22:55:22.071Z,12.13
2018-08-13T22:57:51.055Z,12.13
2018-08-13T23:00:20.543Z,10.97
2018-08-13T23:02:50.387Z,11.30
2018-08-13T23:05:21.491Z,12.20
2018-08-13T23:07:50.592Z,10.70
2018-08-13T23:10:21.219Z,12.13
2018-08-13T23:12:52.397Z,13.10
2018-08-13T23:15:21.348Z,11.43
2018-08-13T23:17:51.046Z,13.10
2018-08-13T23:20:24.173Z,12.70
2018-08-13T23:22:54.279Z,12.37
2018-08-13T23:25:23.572Z,11.97
2018-08-13T23:27:53.590Z,11.87
2018-08-13T23:30:22.801Z,13.30
2018-08-13T23:32:52.831Z,13.03
2018-08-13T23:35:22.511Z,12.33
2018-08-13T23:37:51.855Z,13.40
2018-08-13T23:40:21.039Z,13.10
2018-08-13T23:42:49.891Z,12.60
2018-08-13T23:45:23.003Z,11.77
2018-08-13T23:47:51.867Z,14.17
2018-08-13T23:50:22.718Z,12.40
2018-08-13T23:52:53.379Z,12.70
2018-08-13T23:55:28.697Z,12.23
2018-08-13T23:57:57.899Z,12.13
